Time;durP1;ratioP1;P1;durP2;ratioP2;P2;SDS_P1;SDS_P2;PMS_P1;PMS_P2;Temp;Humidity;BMP_temperature;BMP_pressure;BME280_temperature;BME280_humidity;BME280_pressure;Samples;Min_cycle;Max_cycle;Signal;HPM_P1;HPM_P2
2022/11/10 00:01:42;;;;;;;;;;;;;;;7.61;50.96;95690.59;4994955;28;19965;-74
2022/11/10 00:04:07;;;;;;;;;;;;;;;7.43;51.17;95698.63;4997699;28;20017;-74
2022/11/10 00:06:32;;;;;;;;;;;;;;;7.43;51.30;95695.97;5000074;28;20060;-75
2022/11/10 00:08:58;;;;;;;;;;;;;;;7.24;51.89;95692.56;5001706;28;20449;-74
2022/11/10 00:11:23;;;;;;;;;;;;;;;7.42;51.50;95697.81;4994734;28;19986;-74
2022/11/10 00:19:16;;;;;;;;;;;;;;;6.93;53.13;95720.28;4995563;28;20364;-74
2022/11/10 00:21:41;;;;;;;;;;;;;;;6.90;53.45;95728.50;4992792;28;19974;-75
2022/11/10 00:24:06;;;;;;;;;;;;;;;6.81;53.49;95730.28;5001943;28;19997;-76
2022/11/10 00:26:31;;;;;;;;;;;;;;;6.76;53.48;95736.00;5028280;28;20999;-75
2022/11/10 00:28:57;;;;;;;;;;;;;;;6.68;53.86;95737.75;4993790;28;20270;-74
2022/11/10 00:31:22;;;;;;;;;;;;;;;6.72;53.53;95739.94;5001708;28;19993;-74
2022/11/10 00:33:47;;;;;;;;;;;;;;;6.82;54.10;95749.59;4999192;28;19976;-74
2022/11/10 00:36:12;;;;;;;;;;;;;;;6.95;53.26;95741.28;5028690;28;19989;-75
2022/11/10 00:38:38;;;;;;;;;;;;;;;6.87;54.12;95748.19;4998077;28;20470;-74
2022/11/10 00:41:03;;;;;;;;;;;;;;;6.29;55.04;95752.03;5026453;28;20243;-75
2022/11/10 00:43:28;;;;;;;;;;;;;;;6.87;53.50;95757.94;4995655;28;20004;-74
2022/11/10 00:45:53;;;;;;;;;;;;;;;7.10;53.20;95760.09;4999896;28;19993;-75
2022/11/10 00:48:19;;;;;;;;;;;;;;;7.00;52.92;95768.97;4997509;28;20002;-74
2022/11/10 00:50:44;;;;;;;;;;;;;;;7.33;52.42;95770.22;4994209;28;19975;-74
2022/11/10 00:53:09;;;;;;;;;;;;;;;6.31;54.70;95771.19;4994616;28;19970;-74
2022/11/10 00:55:38;;;;;;;;;;;;;;;6.99;53.51;95772.63;4994881;28;20091;-73
2022/11/10 00:58:03;;;;;;;;;;;;;;;6.63;54.19;95772.56;5000179;28;19969;-75
2022/11/10 01:00:28;;;;;;;;;;;;;;;6.79;54.31;95771.06;4995542;28;19993;-75
2022/11/10 01:02:53;;;;;;;;;;;;;;;7.21;52.53;95782.91;4995370;28;20113;-74
2022/11/10 01:05:18;;;;;;;;;;;;;;;6.64;53.76;95780.34;5000007;28;19970;-75
2022/11/10 01:07:44;;;;;;;;;;;;;;;7.29;52.43;95782.97;4998067;28;20092;-74
2022/11/10 01:10:09;;;;;;;;;;;;;;;7.59;51.66;95780.03;4995883;28;19965;-74
2022/11/10 01:12:34;;;;;;;;;;;;;;;7.32;52.58;95792.41;4990671;28;19985;-75
2022/11/10 01:14:59;;;;;;;;;;;;;;;7.61;51.85;95776.22;4998098;28;20118;-75
2022/11/10 01:17:25;;;;;;;;;;;;;;;7.42;52.56;95793.16;4996813;28;20056;-74
2022/11/10 01:19:50;;;;;;;;;;;;;;;6.95;53.37;95781.84;4997293;28;20033;-74
2022/11/10 01:22:15;;;;;;;;;;;;;;;7.98;50.97;95789.41;4994613;28;19978;-74
2022/11/10 01:24:40;;;;;;;;;;;;;;;8.24;50.02;95792.03;4996407;28;19994;-75
2022/11/10 01:27:06;;;;;;;;;;;;;;;7.39;52.41;95794.28;5001861;28;19998;-75
2022/11/10 01:29:31;;;;;;;;;;;;;;;7.86;51.13;95800.25;5000049;28;20438;-75
2022/11/10 01:31:56;;;;;;;;;;;;;;;8.06;50.37;95800.03;4995728;28;20626;-74
2022/11/10 01:34:21;;;;;;;;;;;;;;;8.18;50.23;95811.22;5001186;28;19981;-74
2022/11/10 01:36:46;;;;;;;;;;;;;;;7.07;52.77;95810.75;4999715;28;20013;-75
2022/11/10 01:39:12;;;;;;;;;;;;;;;7.43;52.56;95816.00;5029466;28;19986;-74
2022/11/10 01:41:37;;;;;;;;;;;;;;;7.83;51.42;95813.84;4998967;28;20244;-73
2022/11/10 01:44:12;;;;;;;;;;;;;;;6.91;53.37;95814.06;4998028;28;20118;-74
2022/11/10 01:46:37;;;;;;;;;;;;;;;7.76;51.28;95818.88;4998279;28;20541;-74
2022/11/10 01:49:02;;;;;;;;;;;;;;;7.83;51.21;95819.16;4997175;28;19967;-75
2022/11/10 01:51:36;;;;;;;;;;;;;;;6.89;53.36;95825.63;4991870;28;19990;-75
2022/11/10 01:54:02;;;;;;;;;;;;;;;7.63;51.81;95821.97;4991365;28;19974;-75
2022/11/10 01:56:29;;;;;;;;;;;;;;;7.11;53.60;95812.09;4993546;28;20000;-75
2022/11/10 01:58:55;;;;;;;;;;;;;;;7.43;52.60;95804.56;4992744;28;19997;-73
2022/11/10 02:01:21;;;;;;;;;;;;;;;6.79;54.45;95818.72;4995550;28;20023;-75
2022/11/10 02:03:50;;;;;;;;;;;;;;;6.89;53.54;95811.53;4993731;28;20451;-76
2022/11/10 02:06:16;;;;;;;;;;;;;;;7.24;53.17;95804.59;5008441;28;19984;-75
2022/11/10 02:08:41;;;;;;;;;;;;;;;7.51;52.37;95802.81;5014945;28;20002;-76
2022/11/10 02:11:06;;;;;;;;;;;;;;;7.29;52.97;95812.09;4985066;28;19997;-76
2022/11/10 02:13:32;;;;;;;;;;;;;;;7.55;52.22;95816.59;4992101;28;20456;-75
2022/11/10 02:15:57;;;;;;;;;;;;;;;7.73;51.81;95818.38;4990418;28;20278;-76
2022/11/10 02:18:22;;;;;;;;;;;;;;;7.44;52.74;95816.84;4995160;28;19970;-75
2022/11/10 02:20:47;;;;;;;;;;;;;;;7.12;53.14;95819.06;5029087;28;19985;-76
2022/11/10 02:23:28;;;;;;;;;;;;;;;7.08;53.35;95833.56;4991388;28;20172;-75
2022/11/10 02:25:53;;;;;;;;;;;;;;;6.83;54.48;95812.97;4985764;28;20224;-76
2022/11/10 02:28:18;;;;;;;;;;;;;;;6.75;54.72;95811.09;4985224;28;20002;-76
2022/11/10 02:30:44;;;;;;;;;;;;;;;7.04;53.91;95817.16;4986459;28;19966;-75
2022/11/10 02:33:09;;;;;;;;;;;;;;;6.56;54.98;95824.44;5003945;28;20035;-76
2022/11/10 02:35:34;;;;;;;;;;;;;;;6.84;54.18;95838.44;5022358;28;20243;-76
2022/11/10 02:37:59;;;;;;;;;;;;;;;7.12;53.48;95832.28;4982328;28;19989;-76
2022/11/10 02:40:25;;;;;;;;;;;;;;;7.03;53.28;95826.06;4987396;28;19994;-75
2022/11/10 02:42:50;;;;;;;;;;;;;;;6.27;55.08;95835.94;4992822;28;19996;-76
2022/11/10 02:45:15;;;;;;;;;;;;;;;7.43;52.86;95844.31;4991290;28;20028;-76
2022/11/10 02:47:40;;;;;;;;;;;;;;;7.46;52.82;95842.19;4987215;28;20005;-76
2022/11/10 02:50:06;;;;;;;;;;;;;;;7.57;52.28;95842.94;4989854;28;20131;-74
2022/11/10 02:52:32;;;;;;;;;;;;;;;7.37;52.62;95854.53;4986062;28;19990;-76
2022/11/10 02:54:58;;;;;;;;;;;;;;;7.69;51.94;95856.78;4991361;28;19990;-77
2022/11/10 02:57:23;;;;;;;;;;;;;;;7.38;52.55;95863.31;4990641;28;19976;-77
2022/11/10 02:59:48;;;;;;;;;;;;;;;7.40;52.87;95871.94;4987870;28;20481;-77
2022/11/10 03:02:14;;;;;;;;;;;;;;;7.19;52.94;95866.94;4989705;28;19988;-76
2022/11/10 03:04:39;;;;;;;;;;;;;;;7.21;53.52;95868.44;4986886;28;20052;-77
2022/11/10 03:07:04;;;;;;;;;;;;;;;6.63;54.74;95871.31;4989741;28;20370;-76
2022/11/10 03:09:30;;;;;;;;;;;;;;;6.83;54.44;95875.69;4992028;28;19978;-74
2022/11/10 03:11:55;;;;;;;;;;;;;;;7.52;52.94;95872.56;5024409;28;20092;-77
2022/11/10 03:14:20;;;;;;;;;;;;;;;7.57;52.14;95878.22;4987345;28;20028;-76
2022/11/10 03:16:45;;;;;;;;;;;;;;;7.44;52.78;95875.13;4985728;28;19990;-76
2022/11/10 03:19:10;;;;;;;;;;;;;;;7.73;52.04;95889.94;4988613;28;20064;-75
2022/11/10 03:21:36;;;;;;;;;;;;;;;7.65;52.35;95880.94;4993245;28;19966;-75
2022/11/10 03:24:01;;;;;;;;;;;;;;;7.46;52.32;95889.03;4992990;28;20001;-77
2022/11/10 03:26:27;;;;;;;;;;;;;;;7.71;51.98;95892.75;4993984;28;19977;-76
2022/11/10 03:28:52;;;;;;;;;;;;;;;7.67;51.61;95883.44;4982805;28;19985;-76
2022/11/10 03:31:17;;;;;;;;;;;;;;;7.63;51.87;95890.03;4989689;28;20056;-77
2022/11/10 03:33:42;;;;;;;;;;;;;;;6.78;54.91;95892.00;5008974;28;20229;-76
2022/11/10 03:36:08;;;;;;;;;;;;;;;7.19;53.02;95890.78;4994887;28;20000;-75
2022/11/10 03:38:33;;;;;;;;;;;;;;;7.21;53.15;95908.16;4991939;28;20012;-75
2022/11/10 03:40:58;;;;;;;;;;;;;;;6.99;53.53;95904.97;5026246;28;19978;-75
2022/11/10 03:43:23;;;;;;;;;;;;;;;7.08;53.41;95907.72;4995763;28;20016;-76
2022/11/10 03:45:49;;;;;;;;;;;;;;;7.46;52.33;95916.38;4991908;28;20045;-76
2022/11/10 03:48:14;;;;;;;;;;;;;;;6.95;53.59;95913.34;5024751;28;20006;-76
2022/11/10 03:50:39;;;;;;;;;;;;;;;6.74;54.25;95920.53;4995611;28;20017;-77
2022/11/10 03:53:04;;;;;;;;;;;;;;;7.10;52.77;95921.63;4990943;28;19974;-76
2022/11/10 03:55:29;;;;;;;;;;;;;;;7.60;52.11;95932.72;4993158;28;20004;-75
2022/11/10 03:57:55;;;;;;;;;;;;;;;7.37;52.33;95928.72;5022047;28;19978;-76
2022/11/10 04:00:20;;;;;;;;;;;;;;;7.65;51.83;95925.16;4995570;28;19998;-77
2022/11/10 04:02:46;;;;;;;;;;;;;;;7.81;51.06;95915.69;4993400;28;20498;-76
2022/11/10 04:10:42;;;;;;;;;;;;;;;7.34;52.09;95912.28;4992135;28;20424;-76
2022/11/10 04:15:51;;;;;;;;;;;;;;;7.49;52.33;95921.38;4993562;28;20401;-75
2022/11/10 04:18:20;;;;;;;;;;;;;;;7.49;51.60;95918.72;4991590;28;19978;-75
2022/11/10 04:20:45;;;;;;;;;;;;;;;7.27;52.88;95915.53;4992000;28;20397;-76
2022/11/10 04:23:25;;;;;;;;;;;;;;;7.34;52.23;95920.25;4987251;28;20658;-75
2022/11/10 04:28:39;;;;;;;;;;;;;;;7.46;51.58;95924.31;4992111;28;20341;-75
2022/11/10 04:31:04;;;;;;;;;;;;;;;7.15;52.60;95935.25;4989161;28;20041;-75
2022/11/10 04:33:29;;;;;;;;;;;;;;;7.42;51.93;95941.50;4991078;28;19974;-75
2022/11/10 04:35:55;;;;;;;;;;;;;;;7.18;52.16;95939.44;4994633;28;19997;-75
2022/11/10 04:38:20;;;;;;;;;;;;;;;6.25;54.09;95950.63;4992465;28;19979;-76
2022/11/10 04:40:45;;;;;;;;;;;;;;;7.19;52.31;95957.81;4992124;28;20263;-76
2022/11/10 04:43:10;;;;;;;;;;;;;;;6.97;52.59;95965.16;4988977;28;20413;-74
2022/11/10 04:45:36;;;;;;;;;;;;;;;7.05;52.41;95968.91;4990138;28;19970;-76
2022/11/10 04:48:01;;;;;;;;;;;;;;;5.98;55.14;95973.34;4991579;28;20041;-76
2022/11/10 04:50:26;;;;;;;;;;;;;;;6.23;54.63;95967.59;4990585;28;19974;-75
2022/11/10 04:52:51;;;;;;;;;;;;;;;6.22;54.57;95982.63;4997760;28;20430;-75
2022/11/10 04:55:17;;;;;;;;;;;;;;;6.10;55.25;95987.25;4991156;28;20404;-76
2022/11/10 04:57:42;;;;;;;;;;;;;;;6.11;55.30;95994.19;4993053;28;20099;-76
2022/11/10 05:00:09;;;;;;;;;;;;;;;6.18;55.27;95994.47;4989349;28;19994;-76
2022/11/10 05:02:35;;;;;;;;;;;;;;;5.53;56.95;95998.50;5004095;28;20167;-76
2022/11/10 05:05:00;;;;;;;;;;;;;;;5.68;56.50;96001.56;4992236;28;19989;-75
2022/11/10 05:07:25;;;;;;;;;;;;;;;5.35;57.47;96000.97;4991830;28;20044;-76
2022/11/10 05:09:50;;;;;;;;;;;;;;;5.41;57.16;96003.03;4983442;28;20013;-76
2022/11/10 05:12:16;;;;;;;;;;;;;;;5.01;58.12;95996.81;4987387;28;20093;-75
2022/11/10 05:14:41;;;;;;;;;;;;;;;4.66;58.73;96013.88;4991558;28;19981;-75
2022/11/10 05:17:06;;;;;;;;;;;;;;;4.78;58.72;96012.81;4989550;28;19974;-76
2022/11/10 05:19:31;;;;;;;;;;;;;;;4.95;58.40;96013.16;5005001;28;20546;-76
2022/11/10 05:21:56;;;;;;;;;;;;;;;4.78;58.92;96020.72;4991030;28;20410;-76
2022/11/10 05:24:22;;;;;;;;;;;;;;;4.90;58.51;96031.19;4991776;28;19993;-76
2022/11/10 05:26:47;;;;;;;;;;;;;;;5.11;57.91;96025.06;4982253;28;20001;-76
2022/11/10 05:29:12;;;;;;;;;;;;;;;5.12;58.08;96024.06;4990702;28;19974;-76
2022/11/10 05:31:37;;;;;;;;;;;;;;;5.24;57.91;96030.09;4987576;28;20201;-75
2022/11/10 05:34:03;;;;;;;;;;;;;;;5.59;56.62;96034.09;4984703;28;19981;-75
2022/11/10 05:36:28;;;;;;;;;;;;;;;5.61;56.83;96040.06;4980196;28;20735;-76
2022/11/10 05:38:53;;;;;;;;;;;;;;;5.68;56.45;96046.47;4988764;28;20013;-76
2022/11/10 05:41:18;;;;;;;;;;;;;;;4.98;58.48;96057.75;4981838;28;19973;-75
2022/11/10 05:43:44;;;;;;;;;;;;;;;5.44;57.17;96057.41;4988344;28;19998;-75
2022/11/10 05:46:09;;;;;;;;;;;;;;;5.70;56.29;96056.91;4987562;28;19974;-76
2022/11/10 05:48:34;;;;;;;;;;;;;;;5.90;55.42;96057.78;4987588;28;20002;-76
2022/11/10 05:50:59;;;;;;;;;;;;;;;5.94;55.44;96059.16;4991110;28;20371;-76
2022/11/10 05:53:25;;;;;;;;;;;;;;;5.47;57.00;96067.69;4994372;28;20005;-76
2022/11/10 05:55:50;;;;;;;;;;;;;;;5.28;57.60;96069.31;4991504;28;19997;-75
2022/11/10 05:58:16;;;;;;;;;;;;;;;5.11;58.01;96065.50;4997983;28;19970;-75
2022/11/10 06:00:41;;;;;;;;;;;;;;;5.72;56.02;96062.91;4990147;28;20465;-77
2022/11/10 06:03:13;;;;;;;;;;;;;;;5.57;56.46;96073.00;4988645;28;20481;-76
2022/11/10 06:05:38;;;;;;;;;;;;;;;5.55;56.59;96086.31;4989131;28;19977;-76
2022/11/10 06:08:03;;;;;;;;;;;;;;;5.09;57.30;96092.03;4988454;28;20097;-76
2022/11/10 06:10:29;;;;;;;;;;;;;;;4.52;59.94;96089.69;4988031;28;19992;-75
2022/11/10 06:12:54;;;;;;;;;;;;;;;5.24;57.56;96083.75;4992992;28;19985;-76
2022/11/10 06:15:19;;;;;;;;;;;;;;;4.86;59.36;96101.84;4980381;28;19994;-75
2022/11/10 06:17:45;;;;;;;;;;;;;;;5.54;56.76;96094.41;5002681;28;20025;-76
2022/11/10 06:20:10;;;;;;;;;;;;;;;4.08;60.29;96110.84;4982623;28;20056;-75
2022/11/10 06:22:35;;;;;;;;;;;;;;;3.78;62.51;96117.66;4981345;28;20109;-75
2022/11/10 06:25:01;;;;;;;;;;;;;;;4.82;58.71;96132.94;4985955;28;19978;-75
2022/11/10 06:27:26;;;;;;;;;;;;;;;4.80;59.08;96129.59;4983454;28;20263;-77
2022/11/10 06:29:51;;;;;;;;;;;;;;;5.35;57.02;96130.34;4987364;28;20462;-75
2022/11/10 06:32:17;;;;;;;;;;;;;;;5.38;57.40;96135.38;4990392;28;19993;-76
2022/11/10 06:34:42;;;;;;;;;;;;;;;5.70;56.44;96136.16;4983552;28;19974;-76
2022/11/10 06:37:07;;;;;;;;;;;;;;;5.46;57.37;96145.25;4988320;28;20013;-76
2022/11/10 06:39:33;;;;;;;;;;;;;;;4.63;58.59;96143.34;4989378;28;20001;-75
2022/11/10 06:41:58;;;;;;;;;;;;;;;5.54;56.81;96153.34;4992085;28;19973;-76
2022/11/10 06:44:23;;;;;;;;;;;;;;;5.39;57.40;96160.78;4988690;28;20024;-76
2022/11/10 06:46:49;;;;;;;;;;;;;;;5.10;57.72;96172.03;4989130;28;20004;-75
2022/11/10 06:49:14;;;;;;;;;;;;;;;5.39;57.34;96157.31;4992590;28;19977;-75
2022/11/10 06:51:39;;;;;;;;;;;;;;;5.70;56.16;96176.63;4991887;28;19989;-75
2022/11/10 06:54:04;;;;;;;;;;;;;;;5.90;55.52;96167.91;4991247;28;20191;-76
2022/11/10 06:56:30;;;;;;;;;;;;;;;5.85;55.82;96177.09;4992567;28;20252;-75
2022/11/10 06:58:55;;;;;;;;;;;;;;;6.05;55.34;96171.03;4989754;28;20325;-76
2022/11/10 07:01:25;;;;;;;;;;;;;;;6.17;54.71;96180.53;5000096;28;19994;-76
2022/11/10 07:03:50;;;;;;;;;;;;;;;6.29;54.47;96193.63;4992340;28;19990;-75
2022/11/10 07:06:15;;;;;;;;;;;;;;;6.34;54.28;96194.03;4989171;28;20393;-76
2022/11/10 07:08:40;;;;;;;;;;;;;;;6.18;54.81;96205.97;4990974;28;20002;-77
2022/11/10 07:11:05;;;;;;;;;;;;;;;5.69;55.86;96198.75;4994816;28;20093;-75
2022/11/10 07:13:31;;;;;;;;;;;;;;;6.19;54.79;96201.53;4992952;28;20036;-75
2022/11/10 07:15:56;;;;;;;;;;;;;;;6.19;54.52;96218.22;4989440;28;19993;-75
2022/11/10 07:18:22;;;;;;;;;;;;;;;5.61;56.37;96217.88;4990848;28;20546;-76
2022/11/10 07:20:47;;;;;;;;;;;;;;;6.10;54.86;96208.47;4974008;28;19990;-75
2022/11/10 07:23:12;;;;;;;;;;;;;;;6.33;54.54;96208.25;4990887;28;20005;-75
2022/11/10 07:25:38;;;;;;;;;;;;;;;6.15;54.72;96219.47;4992707;28;19973;-75
2022/11/10 07:28:04;;;;;;;;;;;;;;;6.63;53.85;96220.56;4992163;28;20631;-75
2022/11/10 07:30:29;;;;;;;;;;;;;;;6.39;54.62;96220.91;4992840;28;19977;-76
2022/11/10 07:33:10;;;;;;;;;;;;;;;6.80;53.24;96226.13;4993889;28;20324;-75
2022/11/10 07:35:36;;;;;;;;;;;;;;;7.07;52.44;96226.41;4990981;28;19997;-75
2022/11/10 07:38:02;;;;;;;;;;;;;;;6.98;52.39;96228.94;4988525;28;19978;-75
2022/11/10 07:40:27;;;;;;;;;;;;;;;6.95;52.66;96237.16;4985794;28;20076;-76
2022/11/10 07:42:52;;;;;;;;;;;;;;;6.88;53.18;96241.34;4990758;28;20613;-75
2022/11/10 07:45:18;;;;;;;;;;;;;;;7.17;52.53;96242.28;4991608;28;20150;-76
2022/11/10 07:47:43;;;;;;;;;;;;;;;6.60;53.59;96251.75;4991292;28;20020;-75
2022/11/10 07:50:08;;;;;;;;;;;;;;;6.59;52.96;96244.78;4991440;28;19973;-76
2022/11/10 07:52:34;;;;;;;;;;;;;;;7.28;52.04;96242.16;4987916;28;20281;-75
2022/11/10 07:54:59;;;;;;;;;;;;;;;6.86;53.32;96248.56;4989738;28;19996;-76
2022/11/10 07:57:24;;;;;;;;;;;;;;;5.65;55.62;96250.19;4991840;28;19965;-76
2022/11/10 07:59:49;;;;;;;;;;;;;;;6.02;55.58;96254.06;4992055;28;19986;-76
2022/11/10 08:02:14;;;;;;;;;;;;;;;7.31;52.02;96244.50;4990426;28;20061;-75
2022/11/10 08:04:40;;;;;;;;;;;;;;;7.53;51.66;96247.81;4992405;28;20466;-75
2022/11/10 08:07:05;;;;;;;;;;;;;;;7.19;52.82;96256.22;4991579;28;20410;-76
2022/11/10 08:09:30;;;;;;;;;;;;;;;6.66;53.34;96250.38;4992068;28;19989;-76
2022/11/10 08:11:55;;;;;;;;;;;;;;;6.94;53.22;96261.94;4991421;28;20235;-75
2022/11/10 08:14:21;;;;;;;;;;;;;;;7.55;51.07;96259.06;4971163;28;20528;-75
2022/11/10 08:16:46;;;;;;;;;;;;;;;7.71;50.40;96260.28;4992184;28;20374;-76
2022/11/10 08:19:11;;;;;;;;;;;;;;;7.79;50.79;96253.34;4995901;28;20104;-75
2022/11/10 08:21:37;;;;;;;;;;;;;;;7.93;50.52;96264.47;4991038;28;19978;-77
2022/11/10 08:24:02;;;;;;;;;;;;;;;7.43;51.48;96269.03;4979443;28;20001;-77
2022/11/10 08:26:27;;;;;;;;;;;;;;;5.58;56.29;96286.00;4994459;28;20024;-76
2022/11/10 08:28:53;;;;;;;;;;;;;;;6.09;54.57;96286.94;4989121;28;20010;-75
2022/11/10 08:31:18;;;;;;;;;;;;;;;6.17;54.59;96291.56;4988463;28;20041;-78
2022/11/10 08:33:44;;;;;;;;;;;;;;;6.77;53.22;96293.41;4989001;28;19974;-74
2022/11/10 08:36:09;;;;;;;;;;;;;;;6.44;53.66;96298.06;4989798;28;19996;-76
2022/11/10 08:38:34;;;;;;;;;;;;;;;7.01;52.50;96300.13;4989708;28;19978;-76
2022/11/10 08:40:59;;;;;;;;;;;;;;;7.13;52.35;96302.63;4983645;28;19984;-77
2022/11/10 08:43:28;;;;;;;;;;;;;;;6.05;54.44;96324.38;4991972;28;19998;-75
2022/11/10 08:45:53;;;;;;;;;;;;;;;7.48;51.30;96322.41;4991414;28;19962;-77
2022/11/10 08:48:18;;;;;;;;;;;;;;;7.50;51.78;96328.41;4991206;28;20558;-78
2022/11/10 08:50:44;;;;;;;;;;;;;;;7.74;50.88;96321.81;4980120;28;19990;-75
2022/11/10 08:53:10;;;;;;;;;;;;;;;7.21;52.54;96329.25;4980815;28;20498;-77
2022/11/10 08:55:35;;;;;;;;;;;;;;;6.99;52.81;96331.22;4990077;28;19985;-77
2022/11/10 08:58:01;;;;;;;;;;;;;;;7.65;51.44;96330.66;4983040;28;20684;-75
2022/11/10 09:00:27;;;;;;;;;;;;;;;6.86;53.01;96346.50;4985688;28;20306;-70
2022/11/10 09:02:53;;;;;;;;;;;;;;;6.50;54.31;96347.81;4992733;28;20005;-74
2022/11/10 09:05:18;;;;;;;;;;;;;;;4.93;59.65;96358.16;4989789;28;20029;-70
2022/11/10 09:07:44;;;;;;;;;;;;;;;7.02;53.61;96354.75;4986396;28;19998;-77
2022/11/10 09:10:09;;;;;;;;;;;;;;;6.35;54.65;96365.81;4985370;28;20073;-77
2022/11/10 09:12:35;;;;;;;;;;;;;;;7.53;51.55;96354.66;4989887;28;20036;-76
2022/11/10 09:15:00;;;;;;;;;;;;;;;7.44;52.22;96366.06;4991559;28;19997;-75
2022/11/10 09:17:25;;;;;;;;;;;;;;;7.54;51.81;96364.25;4988530;28;20204;-74
2022/11/10 09:19:51;;;;;;;;;;;;;;;7.75;50.78;96371.19;4982832;28;19998;-74
2022/11/10 09:22:16;;;;;;;;;;;;;;;7.92;50.87;96369.69;4986749;28;19990;-74
2022/11/10 09:24:41;;;;;;;;;;;;;;;7.75;50.70;96368.56;4990750;28;19994;-74
2022/11/10 09:27:06;;;;;;;;;;;;;;;8.10;50.53;96368.09;4989990;28;20005;-74
2022/11/10 09:29:32;;;;;;;;;;;;;;;7.90;51.07;96354.91;4991327;28;20107;-75
2022/11/10 09:31:57;;;;;;;;;;;;;;;8.05;51.28;96371.19;4989929;28;20000;-73
2022/11/10 09:34:22;;;;;;;;;;;;;;;8.04;50.51;96378.31;4994873;28;20787;-73
2022/11/10 09:36:47;;;;;;;;;;;;;;;8.11;50.61;96385.69;4991099;28;20439;-73
2022/11/10 09:39:14;;;;;;;;;;;;;;;8.51;49.60;96387.25;5019291;28;20001;-73
2022/11/10 09:41:40;;;;;;;;;;;;;;;8.64;49.30;96383.41;4989179;28;20494;-74
2022/11/10 09:44:13;;;;;;;;;;;;;;;8.03;50.90;96397.03;4987258;28;19998;-73
2022/11/10 09:46:43;;;;;;;;;;;;;;;8.72;49.27;96399.44;4988947;28;19975;-74
2022/11/10 09:49:22;;;;;;;;;;;;;;;8.62;49.71;96414.56;4990091;28;19974;-74
2022/11/10 09:51:47;;;;;;;;;;;;;;;8.55;49.33;96415.16;4989642;28;20295;-73
2022/11/10 09:54:21;;;;;;;;;;;;;;;8.88;48.00;96417.38;4989693;28;20303;-74
2022/11/10 09:56:46;;;;;;;;;;;;;;;8.04;49.63;96425.22;4988169;28;20004;-73
2022/11/10 09:59:15;;;;;;;;;;;;;;;9.06;48.28;96408.66;4986522;28;20598;-74
2022/11/10 10:01:43;;;;;;;;;;;;;;;8.38;49.01;96418.56;4989104;28;20190;-74
2022/11/10 10:04:18;;;;;;;;;;;;;;;9.31;47.67;96415.06;4989760;28;20004;-74
2022/11/10 10:07:02;;;;;;;;;;;;;;;8.36;48.98;96415.22;4987739;28;20016;-73
2022/11/10 10:09:31;;;;;;;;;;;;;;;9.06;48.33;96413.97;4988882;28;20494;-74
2022/11/10 10:12:00;;;;;;;;;;;;;;;8.27;47.80;96420.41;4986595;28;20503;-73
2022/11/10 10:14:34;;;;;;;;;;;;;;;8.93;48.03;96414.28;4988841;28;19970;-73
2022/11/10 10:17:03;;;;;;;;;;;;;;;9.00;47.43;96404.78;4987620;28;20021;-74
2022/11/10 10:19:41;;;;;;;;;;;;;;;9.29;46.62;96403.75;4989131;28;19985;-73
2022/11/10 10:22:12;;;;;;;;;;;;;;;9.59;46.70;96415.00;4987999;28;19977;-74
2022/11/10 10:24:37;;;;;;;;;;;;;;;9.94;45.92;96419.63;4987815;28;19988;-74
2022/11/10 10:27:03;;;;;;;;;;;;;;;9.79;45.64;96422.81;4990405;28;20002;-74
2022/11/10 10:29:29;;;;;;;;;;;;;;;10.23;45.14;96424.69;4987722;28;19962;-75
2022/11/10 10:31:57;;;;;;;;;;;;;;;9.75;46.64;96431.28;4987565;28;20052;-74
2022/11/10 10:34:23;;;;;;;;;;;;;;;9.70;45.36;96431.72;4991799;28;19962;-74
2022/11/10 10:36:49;;;;;;;;;;;;;;;10.04;44.90;96431.00;4986053;28;19989;-74
2022/11/10 10:39:15;;;;;;;;;;;;;;;10.03;44.76;96439.97;4983024;28;20354;-74
2022/11/10 10:41:41;;;;;;;;;;;;;;;10.16;45.59;96438.78;4987226;28;19970;-74
2022/11/10 10:44:16;;;;;;;;;;;;;;;10.25;44.41;96439.66;4979628;28;20227;-74
2022/11/10 10:46:43;;;;;;;;;;;;;;;10.34;44.95;96430.75;4983490;28;20229;-74
2022/11/10 10:49:14;;;;;;;;;;;;;;;9.76;44.59;96444.38;4987288;28;19974;-74
2022/11/10 10:51:40;;;;;;;;;;;;;;;10.34;44.38;96442.22;4990281;28;20168;-74
2022/11/10 10:54:17;;;;;;;;;;;;;;;8.88;47.85;96451.91;4986320;28;20358;-74
2022/11/10 10:56:42;;;;;;;;;;;;;;;9.85;46.19;96443.50;4989326;28;19998;-74
2022/11/10 10:59:08;;;;;;;;;;;;;;;8.97;47.11;96444.09;4992359;28;20466;-78
2022/11/10 11:01:36;;;;;;;;;;;;;;;9.58;45.84;96437.25;4985938;28;20020;-75
2022/11/10 11:04:04;;;;;;;;;;;;;;;8.73;46.31;96440.94;4999438;28;20015;-77
2022/11/10 11:06:30;;;;;;;;;;;;;;;9.16;46.55;96443.97;4986071;28;20353;-76
2022/11/10 11:08:58;;;;;;;;;;;;;;;9.25;47.07;96447.53;4987112;28;20025;-78
2022/11/10 11:11:28;;;;;;;;;;;;;;;9.61;45.46;96449.41;5022777;28;20467;-76
2022/11/10 11:14:10;;;;;;;;;;;;;;;10.64;43.63;96441.06;4984063;28;19974;-76
2022/11/10 11:16:44;;;;;;;;;;;;;;;10.61;43.49;96447.56;4982691;28;19998;-77
2022/11/10 11:19:09;;;;;;;;;;;;;;;9.98;43.93;96439.59;4981429;28;20374;-78
2022/11/10 11:21:36;;;;;;;;;;;;;;;10.51;42.84;96446.81;4984992;28;19970;-75
2022/11/10 11:24:07;;;;;;;;;;;;;;;9.96;43.86;96450.38;4977206;28;20406;-77
2022/11/10 11:26:38;;;;;;;;;;;;;;;10.48;43.33;96450.63;4999924;28;20077;-76
2022/11/10 11:29:25;;;;;;;;;;;;;;;10.39;43.61;96459.53;5005239;28;20036;-76
2022/11/10 11:32:06;;;;;;;;;;;;;;;10.54;42.80;96457.97;4986610;28;20123;-77
2022/11/10 11:34:42;;;;;;;;;;;;;;;10.55;42.63;96453.50;5019850;28;19977;-78
2022/11/10 11:37:22;;;;;;;;;;;;;;;10.06;44.74;96460.13;4996778;28;20481;-77
2022/11/10 11:39:52;;;;;;;;;;;;;;;10.41;43.44;96460.22;4988127;28;20347;-75
2022/11/10 11:42:36;;;;;;;;;;;;;;;11.06;42.04;96458.91;4992179;28;20272;-77
2022/11/10 11:45:20;;;;;;;;;;;;;;;11.43;42.24;96456.06;4994746;28;20454;-77
2022/11/10 11:48:04;;;;;;;;;;;;;;;10.60;42.20;96467.16;4995196;28;19998;-77
2022/11/10 11:50:32;;;;;;;;;;;;;;;10.05;44.29;96464.63;4994094;28;19980;-75
2022/11/10 11:53:07;;;;;;;;;;;;;;;12.58;38.66;96456.28;4994341;28;20098;-76
2022/11/10 11:55:42;;;;;;;;;;;;;;;14.68;34.40;96459.22;4997911;28;19993;-78
2022/11/10 11:58:07;;;;;;;;;;;;;;;16.26;31.54;96461.69;4991192;28;19974;-77
2022/11/10 12:00:44;;;;;;;;;;;;;;;16.24;31.10;96461.03;4994611;28;20425;-78
2022/11/10 12:03:19;;;;;;;;;;;;;;;17.78;28.73;96457.56;4989908;28;20107;-78
2022/11/10 12:05:51;;;;;;;;;;;;;;;18.27;28.41;96452.06;4998826;28;19969;-76
2022/11/10 12:08:31;;;;;;;;;;;;;;;16.96;30.56;96460.94;4995669;28;20048;-78
2022/11/10 12:11:00;;;;;;;;;;;;;;;18.48;27.72;96463.66;4990475;28;20004;-77
2022/11/10 12:13:25;;;;;;;;;;;;;;;20.83;24.79;96465.47;5024121;28;19971;-78
2022/11/10 12:16:09;;;;;;;;;;;;;;;19.25;26.48;96466.84;4994320;28;19981;-78
2022/11/10 12:18:36;;;;;;;;;;;;;;;17.12;28.87;96470.59;5002710;28;19972;-78
2022/11/10 12:21:22;;;;;;;;;;;;;;;18.37;28.14;96475.91;4996290;28;20424;-80
2022/11/10 12:23:53;;;;;;;;;;;;;;;18.77;27.02;96475.06;4991328;28;20377;-79
2022/11/10 12:26:34;;;;;;;;;;;;;;;20.00;26.15;96484.41;4994845;28;20203;-77
2022/11/10 12:29:28;;;;;;;;;;;;;;;22.65;22.82;96483.97;4998560;28;20553;-78
2022/11/10 12:31:58;;;;;;;;;;;;;;;19.96;25.12;96486.72;4991781;28;20654;-76
2022/11/10 12:34:33;;;;;;;;;;;;;;;19.26;26.30;96480.13;4993600;28;19965;-75
2022/11/10 12:36:58;;;;;;;;;;;;;;;20.87;24.61;96482.91;5025583;28;20092;-77
2022/11/10 12:39:35;;;;;;;;;;;;;;;20.75;24.33;96492.81;4989466;28;20529;-76
2022/11/10 12:42:00;;;;;;;;;;;;;;;20.14;25.02;96489.72;4987374;28;19961;-76
2022/11/10 12:44:26;;;;;;;;;;;;;;;21.23;23.79;96493.97;5005494;28;20304;-77
2022/11/10 12:46:53;;;;;;;;;;;;;;;21.05;23.90;96489.41;4987760;28;20041;-79
2022/11/10 12:49:18;;;;;;;;;;;;;;;19.80;24.83;96506.94;4990787;28;20074;-77
2022/11/10 12:51:47;;;;;;;;;;;;;;;20.05;25.12;96495.38;4991573;28;20027;-76
2022/11/10 12:54:12;;;;;;;;;;;;;;;20.23;24.19;96499.25;4991607;28;19971;-76
2022/11/10 12:56:51;;;;;;;;;;;;;;;18.51;26.68;96505.53;4988592;28;19986;-77
2022/11/10 12:59:19;;;;;;;;;;;;;;;21.02;23.50;96497.13;5003123;28;20461;-77
2022/11/10 13:01:44;;;;;;;;;;;;;;;22.88;21.56;96504.00;5013331;28;20018;-76
2022/11/10 13:04:11;;;;;;;;;;;;;;;24.10;20.02;96503.53;5005228;28;20448;-77
2022/11/10 13:06:38;;;;;;;;;;;;;;;23.49;20.32;96502.88;4979592;28;20043;-77
2022/11/10 13:09:03;;;;;;;;;;;;;;;23.35;20.36;96507.75;5005692;28;20013;-77
2022/11/10 13:11:32;;;;;;;;;;;;;;;24.36;19.63;96518.41;4996149;28;20067;-77